Time;durP1;ratioP1;P1;durP2;ratioP2;P2;SDS_P1;SDS_P2;PMS_P1;PMS_P2;Temp;Humidity;BMP_temperature;BMP_pressure;BME280_temperature;BME280_humidity;BME280_pressure;Samples;Min_cycle;Max_cycle;Signal;HPM_P1;HPM_P2
2022/09/29 00:01:37;;;;;;;;;;;;;;;7.54;100.00;-25276.75;5013143;28;19917;-83
2022/09/29 00:04:04;;;;;;;;;;;;;;;7.54;100.00;-25276.75;5013291;28;19925;-85
2022/09/29 00:06:32;;;;;;;;;;;;;;;7.50;100.00;-25275.56;5010341;28;20004;-84
2022/09/29 00:08:57;;;;;;;;;;;;;;;7.51;100.00;-25275.72;4991540;28;20362;-84
2022/09/29 00:11:23;;;;;;;;;;;;;;;7.48;100.00;-25274.97;4998990;28;19925;-85
2022/09/29 00:13:53;;;;;;;;;;;;;;;7.46;100.00;-25274.38;5005450;28;19921;-84
2022/09/29 00:16:19;;;;;;;;;;;;;;;7.38;100.00;-25272.03;5005934;28;19929;-82
2022/09/29 00:18:46;;;;;;;;;;;;;;;7.34;100.00;-25270.84;5023502;28;19976;-80
2022/09/29 00:21:15;;;;;;;;;;;;;;;7.31;100.00;-25270.13;5025369;28;20012;-84
2022/09/29 00:23:44;;;;;;;;;;;;;;;7.22;100.00;-25267.31;5008703;28;20004;-85
2022/09/29 00:26:09;;;;;;;;;;;;;;;7.17;100.00;-25266.13;5020103;28;19925;-84
2022/09/29 00:28:35;;;;;;;;;;;;;;;7.18;100.00;-25266.28;5019166;28;20383;-79
2022/09/29 00:31:01;;;;;;;;;;;;;;;7.15;100.00;-25265.53;5005265;28;19925;-81
2022/09/29 00:33:31;;;;;;;;;;;;;;;7.17;100.00;-25266.13;5040186;28;19924;-84
2022/09/29 00:36:02;;;;;;;;;;;;;;;7.11;100.00;-25264.22;5038591;28;20016;-83
2022/09/29 00:38:36;;;;;;;;;;;;;;;7.10;100.00;-25263.91;5006166;28;19921;-79
2022/09/29 00:41:03;;;;;;;;;;;;;;;7.04;100.00;-25262.16;5003213;28;19918;-83
2022/09/29 00:43:49;;;;;;;;;;;;;;;7.01;100.00;-25261.41;5025062;28;20044;-85
2022/09/29 00:46:20;;;;;;;;;;;;;;;6.97;100.00;-25260.22;5020288;28;20381;-80
2022/09/29 00:48:45;;;;;;;;;;;;;;;6.94;100.00;-25259.34;5019739;28;20429;-79
2022/09/29 00:51:14;;;;;;;;;;;;;;;6.93;100.00;-25259.03;5036530;28;19921;-79
2022/09/29 00:53:40;;;;;;;;;;;;;;;6.89;100.00;-25257.88;5005642;28;20404;-81
2022/09/29 00:56:10;;;;;;;;;;;;;;;6.83;100.00;-25256.38;5014597;28;19921;-80
2022/09/29 00:58:36;;;;;;;;;;;;;;;6.83;100.00;-25256.25;5027432;28;19952;-79
2022/09/29 01:01:02;;;;;;;;;;;;;;;6.86;100.00;-25256.97;5011123;28;19921;-78
2022/09/29 01:03:45;;;;;;;;;;;;;;;6.89;100.00;-25257.88;5022276;28;19917;-81
2022/09/29 01:06:30;;;;;;;;;;;;;;;6.85;100.00;-25256.69;5028101;28;19928;-85
2022/09/29 01:08:58;;;;;;;;;;;;;;;6.90;100.00;-25258.31;5026643;28;19996;-80
2022/09/29 01:11:25;;;;;;;;;;;;;;;6.89;100.00;-25257.88;5011173;28;19918;-84
2022/09/29 01:14:03;;;;;;;;;;;;;;;6.89;100.00;-25258.00;5003403;28;19929;-83
2022/09/29 01:16:36;;;;;;;;;;;;;;;6.88;100.00;-25257.56;5025435;28;20012;-85
2022/09/29 01:19:33;;;;;;;;;;;;;;;6.87;100.00;-25257.44;5018581;28;19921;-85
2022/09/29 01:22:06;;;;;;;;;;;;;;;6.86;100.00;-25256.97;5027643;28;20447;-83
2022/09/29 01:24:46;;;;;;;;;;;;;;;6.85;100.00;-25256.84;5005154;28;19921;-79
2022/09/29 01:27:19;;;;;;;;;;;;;;;6.82;100.00;-25255.94;4998148;28;19928;-78
2022/09/29 01:29:53;;;;;;;;;;;;;;;6.79;100.00;-25255.06;4997682;28;19917;-79
2022/09/29 01:32:33;;;;;;;;;;;;;;;6.80;100.00;-25255.34;5014048;28;19925;-78
2022/09/29 01:35:17;;;;;;;;;;;;;;;6.73;100.00;-25253.28;4998615;28;19917;-79
2022/09/29 01:38:01;;;;;;;;;;;;;;;6.71;100.00;-25252.84;4999884;28;19921;-79
2022/09/29 01:40:34;;;;;;;;;;;;;;;6.73;100.00;-25253.28;4990635;28;19931;-79
2022/09/29 01:43:08;;;;;;;;;;;;;;;6.74;100.00;-25253.59;5021507;28;19931;-79
2022/09/29 01:45:37;;;;;;;;;;;;;;;6.73;100.00;-25253.44;5007885;28;19918;-83
2022/09/29 01:48:09;;;;;;;;;;;;;;;6.73;100.00;-25253.44;5008303;28;19948;-79
2022/09/29 01:50:41;;;;;;;;;;;;;;;6.71;100.00;-25252.84;5008729;28;19917;-81
2022/09/29 01:53:16;;;;;;;;;;;;;;;6.66;100.00;-25251.38;5028315;28;19918;-79
2022/09/29 01:55:56;;;;;;;;;;;;;;;6.64;100.00;-25250.94;5009818;28;19922;-79
2022/09/29 01:58:24;;;;;;;;;;;;;;;6.63;100.00;-25250.63;5010436;28;19922;-80
2022/09/29 02:00:54;;;;;;;;;;;;;;;6.65;100.00;-25251.22;5010960;28;19928;-79
2022/09/29 02:03:33;;;;;;;;;;;;;;;6.64;100.00;-25250.94;5009760;28;19985;-79
2022/09/29 02:06:03;;;;;;;;;;;;;;;6.63;100.00;-25250.63;5009801;28;19918;-80
2022/09/29 02:08:48;;;;;;;;;;;;;;;6.62;100.00;-25250.34;5010317;28;19924;-79
2022/09/29 02:11:15;;;;;;;;;;;;;;;6.61;100.00;-25250.03;5008925;28;19917;-80
2022/09/29 02:13:49;;;;;;;;;;;;;;;6.60;100.00;-25249.75;5010647;28;19976;-83
2022/09/29 02:16:18;;;;;;;;;;;;;;;6.60;100.00;-25249.75;5025329;28;19917;-84
2022/09/29 02:18:53;;;;;;;;;;;;;;;6.58;100.00;-25249.16;4991359;28;19926;-84
2022/09/29 02:21:21;;;;;;;;;;;;;;;6.54;100.00;-25247.84;5023742;28;19925;-84
2022/09/29 02:23:50;;;;;;;;;;;;;;;6.50;100.00;-25246.78;4990062;28;19921;-84
2022/09/29 02:26:17;;;;;;;;;;;;;;;6.46;100.00;-25245.63;5025991;28;19917;-82
2022/09/29 02:28:42;;;;;;;;;;;;;;;6.45;100.00;-25245.47;4993867;28;19925;-79
2022/09/29 02:31:08;;;;;;;;;;;;;;;6.47;100.00;-25245.91;5011574;28;19909;-80
2022/09/29 02:33:35;;;;;;;;;;;;;;;6.45;100.00;-25245.47;5024574;28;19917;-86
2022/09/29 02:36:01;;;;;;;;;;;;;;;6.43;100.00;-25244.88;5005348;28;19921;-84
2022/09/29 02:38:50;;;;;;;;;;;;;;;6.41;100.00;-25244.28;5025124;28;19929;-82
2022/09/29 02:41:30;;;;;;;;;;;;;;;6.38;100.00;-25243.41;4987660;28;19996;-81
2022/09/29 02:44:25;;;;;;;;;;;;;;;6.38;100.00;-25243.25;5005703;28;19918;-82
2022/09/29 02:46:55;;;;;;;;;;;;;;;6.39;100.00;-25243.69;5010203;28;19918;-81
2022/09/29 02:49:45;;;;;;;;;;;;;;;6.36;100.00;-25242.81;5026633;28;19925;-83
2022/09/29 02:52:15;;;;;;;;;;;;;;;6.31;100.00;-25241.34;5027532;28;19928;-79
2022/09/29 02:55:08;;;;;;;;;;;;;;;6.27;100.00;-25240.28;5010851;28;19924;-82
2022/09/29 02:57:53;;;;;;;;;;;;;;;6.20;100.00;-25238.09;5010511;28;19960;-79
2022/09/29 03:00:21;;;;;;;;;;;;;;;6.18;100.00;-25237.50;5030226;28;19922;-80
2022/09/29 03:02:58;;;;;;;;;;;;;;;6.13;100.00;-25236.16;5013347;28;19941;-79
2022/09/29 03:05:24;;;;;;;;;;;;;;;6.15;100.00;-25236.75;5031993;28;19929;-80
2022/09/29 03:07:50;;;;;;;;;;;;;;;6.13;100.00;-25236.00;5014563;28;19921;-83
2022/09/29 03:10:17;;;;;;;;;;;;;;;6.13;100.00;-25236.00;5013325;28;20338;-80
2022/09/29 03:12:53;;;;;;;;;;;;;;;6.14;100.00;-25236.31;5016551;28;19952;-79
2022/09/29 03:15:27;;;;;;;;;;;;;;;6.10;100.00;-25235.28;5017450;28;19928;-80
2022/09/29 03:17:57;;;;;;;;;;;;;;;6.10;100.00;-25235.28;5018257;28;19953;-80
2022/09/29 03:20:29;;;;;;;;;;;;;;;6.17;100.00;-25237.19;5036816;28;19905;-82
2022/09/29 03:23:10;;;;;;;;;;;;;;;6.15;98.50;-25236.59;5035800;28;20354;-82
2022/09/29 03:25:40;;;;;;;;;;;;;;;6.11;97.30;-25235.72;5032894;28;19925;-82
2022/09/29 03:28:26;;;;;;;;;;;;;;;6.05;96.98;-25233.81;5010812;28;19925;-83
2022/09/29 03:31:34;;;;;;;;;;;;;;;6.04;92.09;-25233.50;5028150;28;20254;-84
2022/09/29 03:34:11;;;;;;;;;;;;;;;6.05;90.40;-25233.81;5036740;28;19917;-86
2022/09/29 03:37:22;;;;;;;;;;;;;;;6.04;89.75;-25233.66;5013314;28;20004;-84
2022/09/29 03:40:06;;;;;;;;;;;;;;;6.04;89.46;-25233.66;5019921;28;20345;-83
2022/09/29 03:43:11;;;;;;;;;;;;;;;6.03;89.18;-25233.34;5007253;28;19925;-82
2022/09/29 03:46:09;;;;;;;;;;;;;;;6.00;88.32;-25232.31;5000452;28;19922;-81
2022/09/29 03:48:47;;;;;;;;;;;;;;;5.99;87.24;-25232.03;5015659;28;19985;-84
2022/09/29 03:51:54;;;;;;;;;;;;;;;5.96;85.58;-25231.13;5034316;28;20373;-82
2022/09/29 03:54:44;;;;;;;;;;;;;;;5.97;84.63;-25231.59;5017678;28;19959;-82
2022/09/29 03:57:56;;;;;;;;;;;;;;;5.95;84.00;-25231.00;5019417;28;19925;-82
2022/09/29 04:01:01;;;;;;;;;;;;;;;5.82;84.18;-25227.28;5002160;28;19980;-82
2022/09/29 04:04:17;;;;;;;;;;;;;;;5.85;83.61;-25228.19;5016082;28;20275;-83
2022/09/29 04:07:07;;;;;;;;;;;;;;;5.72;83.72;-25224.47;4998707;28;20008;-81
2022/09/29 04:09:57;;;;;;;;;;;;;;;5.66;83.83;-25222.56;5026656;28;20003;-84
2022/09/29 04:13:06;;;;;;;;;;;;;;;5.56;83.68;-25219.75;5025740;28;19917;-80
2022/09/29 04:15:53;;;;;;;;;;;;;;;5.53;83.10;-25218.84;5025177;28;19944;-80
2022/09/29 04:19:01;;;;;;;;;;;;;;;5.54;82.61;-25219.16;5015054;28;19922;-80
2022/09/29 04:22:28;;;;;;;;;;;;;;;5.48;82.50;-25217.53;5022863;28;20280;-80
2022/09/29 04:25:39;;;;;;;;;;;;;;;5.46;82.47;-25216.78;5034589;28;19917;-81
2022/09/29 04:28:33;;;;;;;;;;;;;;;5.49;82.20;-25217.69;5035720;28;19929;-80
2022/09/29 04:31:00;;;;;;;;;;;;;;;5.50;82.15;-25217.97;5017967;28;19917;-82
2022/09/29 04:33:48;;;;;;;;;;;;;;;5.52;82.22;-25218.72;4999295;28;20012;-81
2022/09/29 04:36:24;;;;;;;;;;;;;;;5.48;82.40;-25217.38;5017113;28;19957;-81
2022/09/29 04:39:00;;;;;;;;;;;;;;;5.48;82.45;-25217.53;5015026;28;19917;-80
2022/09/29 04:41:25;;;;;;;;;;;;;;;5.46;82.57;-25216.94;4981900;28;19921;-80
2022/09/29 04:44:11;;;;;;;;;;;;;;;5.51;82.59;-25218.28;4997911;28;19927;-80
2022/09/29 04:46:38;;;;;;;;;;;;;;;5.46;82.50;-25216.78;4994529;28;19940;-78
2022/09/29 04:49:27;;;;;;;;;;;;;;;5.44;82.29;-25216.34;5014774;28;19983;-79
2022/09/29 04:52:19;;;;;;;;;;;;;;;5.42;82.07;-25215.75;5013043;28;20125;-79
2022/09/29 04:54:48;;;;;;;;;;;;;;;5.38;82.17;-25214.56;5013627;28;19922;-80
2022/09/29 04:57:17;;;;;;;;;;;;;;;5.36;82.47;-25213.97;4995322;28;19921;-80
2022/09/29 04:59:42;;;;;;;;;;;;;;;5.37;82.56;-25214.28;5015515;28;19924;-80
2022/09/29 05:02:14;;;;;;;;;;;;;;;5.39;82.36;-25215.00;5000771;28;19929;-79
2022/09/29 05:04:39;;;;;;;;;;;;;;;5.39;82.12;-25214.88;5000106;28;19932;-79
2022/09/29 05:07:05;;;;;;;;;;;;;;;5.42;81.76;-25215.75;5000284;28;19921;-79
2022/09/29 05:09:31;;;;;;;;;;;;;;;5.44;81.41;-25216.34;5016148;28;19924;-79
2022/09/29 05:11:56;;;;;;;;;;;;;;;5.40;81.28;-25215.31;4999910;28;19990;-79
2022/09/29 05:14:26;;;;;;;;;;;;;;;5.42;81.17;-25215.59;5000212;28;20425;-79
2022/09/29 05:16:56;;;;;;;;;;;;;;;5.42;81.06;-25215.59;5034071;28;19962;-79
2022/09/29 05:19:22;;;;;;;;;;;;;;;5.44;80.96;-25216.19;5015916;28;19990;-78
2022/09/29 05:21:49;;;;;;;;;;;;;;;5.42;80.94;-25215.75;5016276;28;19921;-78
2022/09/29 05:24:15;;;;;;;;;;;;;;;5.42;80.90;-25215.75;5016515;28;19921;-79
2022/09/29 05:26:41;;;;;;;;;;;;;;;5.41;80.85;-25215.47;5016884;28;20582;-79
2022/09/29 05:29:06;;;;;;;;;;;;;;;5.36;80.88;-25213.97;5014498;28;19917;-79
2022/09/29 05:31:32;;;;;;;;;;;;;;;5.33;80.96;-25213.09;5009285;28;20380;-79
2022/09/29 05:33:59;;;;;;;;;;;;;;;5.35;80.72;-25213.84;4996559;28;19924;-78
2022/09/29 05:36:24;;;;;;;;;;;;;;;5.36;80.46;-25214.13;4996751;28;20000;-82
2022/09/29 05:38:50;;;;;;;;;;;;;;;5.36;80.28;-25214.13;4996464;28;19953;-82
2022/09/29 05:41:17;;;;;;;;;;;;;;;5.40;80.14;-25215.31;4995199;28;19921;-83
2022/09/29 05:43:45;;;;;;;;;;;;;;;5.40;80.21;-25215.16;4996315;28;20012;-81
2022/09/29 05:46:10;;;;;;;;;;;;;;;5.34;80.50;-25213.53;5001788;28;20028;-81
2022/09/29 05:48:36;;;;;;;;;;;;;;;5.35;80.57;-25213.84;4995736;28;20362;-80
2022/09/29 05:51:08;;;;;;;;;;;;;;;5.40;80.48;-25215.16;4997271;28;20385;-80
2022/09/29 05:53:34;;;;;;;;;;;;;;;5.44;80.46;-25216.19;5011880;28;19921;-79
2022/09/29 05:56:02;;;;;;;;;;;;;;;5.48;80.38;-25217.38;5014296;28;20142;-81
2022/09/29 05:58:28;;;;;;;;;;;;;;;5.50;80.42;-25218.13;5014990;28;19917;-81
2022/09/29 06:00:53;;;;;;;;;;;;;;;5.54;80.53;-25219.16;5014812;28;19913;-79
2022/09/29 06:03:28;;;;;;;;;;;;;;;5.61;80.53;-25221.22;5015192;28;20385;-79
2022/09/29 06:05:54;;;;;;;;;;;;;;;5.66;80.40;-25222.72;5032937;28;19924;-79
2022/09/29 06:08:19;;;;;;;;;;;;;;;5.72;80.30;-25224.47;4999175;28;19926;-79
2022/09/29 06:10:45;;;;;;;;;;;;;;;5.79;80.33;-25226.25;5014812;28;19921;-79
2022/09/29 06:13:18;;;;;;;;;;;;;;;5.68;80.62;-25223.28;4999186;28;19973;-78
2022/09/29 06:15:44;;;;;;;;;;;;;;;5.25;82.52;-25210.88;5013630;28;19924;-78
2022/09/29 06:18:09;;;;;;;;;;;;;;;5.10;84.26;-25206.44;5015426;28;19917;-78
2022/09/29 06:21:00;;;;;;;;;;;;;;;5.18;84.86;-25208.94;5013898;28;19925;-79
2022/09/29 06:23:46;;;;;;;;;;;;;;;5.20;85.36;-25209.53;5012951;28;20008;-77
2022/09/29 06:26:14;;;;;;;;;;;;;;;5.25;84.97;-25210.72;5029590;28;20478;-78
2022/09/29 06:28:59;;;;;;;;;;;;;;;5.35;84.44;-25213.69;5008404;28;20388;-79
2022/09/29 06:31:27;;;;;;;;;;;;;;;5.47;83.75;-25217.09;4993561;28;20020;-80
2022/09/29 06:33:55;;;;;;;;;;;;;;;5.52;83.47;-25218.56;4996189;28;20043;-81
2022/09/29 06:39:07;;;;;;;;;;;;;;;5.54;85.43;-25219.16;5015906;28;19948;-79
2022/09/29 06:41:33;;;;;;;;;;;;;;;5.58;86.18;-25220.50;4997831;28;20017;-78
2022/09/29 06:44:00;;;;;;;;;;;;;;;5.60;86.53;-25220.94;5015100;28;20112;-79
2022/09/29 06:46:27;;;;;;;;;;;;;;;5.57;88.01;-25220.03;5014278;28;20379;-78
2022/09/29 06:48:53;;;;;;;;;;;;;;;5.65;90.15;-25222.41;4998406;28;20019;-79
2022/09/29 06:51:21;;;;;;;;;;;;;;;5.57;92.14;-25220.03;4997762;28;20353;-81
2022/09/29 06:53:47;;;;;;;;;;;;;;;5.79;92.36;-25226.25;4997738;28;19921;-80
2022/09/29 06:56:13;;;;;;;;;;;;;;;6.05;91.31;-25233.94;5014773;28;19944;-81
2022/09/29 06:58:39;;;;;;;;;;;;;;;6.09;94.86;-25234.97;4997539;28;20117;-78
2022/09/29 07:01:06;;;;;;;;;;;;;;;6.18;100.00;-25237.63;5015158;28;19922;-78
2022/09/29 07:03:32;;;;;;;;;;;;;;;6.31;100.00;-25241.34;4997398;28;20564;-81
2022/09/29 07:06:09;;;;;;;;;;;;;;;6.15;100.00;-25236.75;4997596;28;20338;-80
2022/09/29 07:08:37;;;;;;;;;;;;;;;6.40;100.00;-25243.84;5013998;28;19976;-75
2022/09/29 07:11:03;;;;;;;;;;;;;;;6.34;100.00;-25242.06;4997310;28;20076;-77
2022/09/29 07:13:29;;;;;;;;;;;;;;;6.58;100.00;-25249.00;4997615;28;19918;-81
2022/09/29 07:15:54;;;;;;;;;;;;;;;6.76;100.00;-25254.31;4996910;28;19921;-79
2022/09/29 07:18:19;;;;;;;;;;;;;;;6.81;100.00;-25255.66;4935372;28;2140436;-82
2022/09/29 07:20:45;;;;;;;;;;;;;;;6.77;100.00;-25254.47;5001839;28;19925;-81
2022/09/29 07:23:16;;;;;;;;;;;;;;;6.98;100.00;-25260.66;5017157;28;20405;-81
2022/09/29 07:25:41;;;;;;;;;;;;;;;6.95;100.00;-25259.78;5017835;28;19928;-79
2022/09/29 07:28:08;;;;;;;;;;;;;;;7.08;100.00;-25263.31;5018393;28;19917;-79
2022/09/29 07:30:36;;;;;;;;;;;;;;;6.86;100.00;-25256.97;5035239;28;19917;-78
2022/09/29 07:33:02;;;;;;;;;;;;;;;7.03;100.00;-25262.00;5012296;28;19921;-80
2022/09/29 07:35:28;;;;;;;;;;;;;;;7.15;100.00;-25265.53;5002361;28;19920;-81
2022/09/29 07:37:53;;;;;;;;;;;;;;;7.24;100.00;-25268.06;4982492;28;19929;-81
2022/09/29 07:40:22;;;;;;;;;;;;;;;7.19;100.00;-25266.72;4996786;28;19995;-81
2022/09/29 07:42:54;;;;;;;;;;;;;;;7.32;100.00;-25270.41;4982196;28;19948;-79
2022/09/29 07:45:19;;;;;;;;;;;;;;;7.44;100.00;-25273.81;4996828;28;19929;-80
2022/09/29 07:47:45;;;;;;;;;;;;;;;7.75;100.00;-25282.66;4982316;28;20590;-79
2022/09/29 07:50:12;;;;;;;;;;;;;;;8.22;100.00;-25296.19;4982356;28;19917;-78
2022/09/29 07:52:39;;;;;;;;;;;;;;;8.83;100.00;-25313.56;4982006;28;20239;-80
2022/09/29 07:55:06;;;;;;;;;;;;;;;9.50;100.00;-25332.69;4998300;28;19926;-78
2022/09/29 07:57:33;;;;;;;;;;;;;;;10.21;100.00;-25353.09;4998748;28;19918;-81
2022/09/29 07:59:58;;;;;;;;;;;;;;;10.56;100.00;-25362.94;5009227;28;19925;-80
2022/09/29 08:02:24;;;;;;;;;;;;;;;11.23;100.00;-25382.00;4984321;28;19925;-81
2022/09/29 08:04:50;;;;;;;;;;;;;;;11.37;100.00;-25385.94;5004009;28;19982;-79
2022/09/29 08:07:16;;;;;;;;;;;;;;;11.92;100.00;-25401.63;5034889;28;19948;-79
2022/09/29 08:09:43;;;;;;;;;;;;;;;11.67;100.00;-25394.59;5009546;28;20366;-80
2022/09/29 08:12:11;;;;;;;;;;;;;;;11.04;100.00;-25376.56;4997947;28;19926;-79
2022/09/29 08:14:38;;;;;;;;;;;;;;;11.73;100.00;-25396.34;5015973;28;19921;-79
2022/09/29 08:17:05;;;;;;;;;;;;;;;12.12;100.00;-25407.47;5017597;28;19917;-80
2022/09/29 08:19:30;;;;;;;;;;;;;;;11.88;100.00;-25400.59;5016393;28;19921;-82
2022/09/29 08:21:57;;;;;;;;;;;;;;;12.32;100.00;-25413.19;5002745;28;20012;-79
2022/09/29 08:24:24;;;;;;;;;;;;;;;12.21;100.00;-25408.19;5014990;28;19975;-79
2022/09/29 08:26:49;;;;;;;;;;;;;;;12.23;100.00;-20496.88;4996279;28;19917;-79
2022/09/29 08:29:14;;;;;;;;;;;;;;;12.76;100.00;-16242.44;4998959;28;19928;-78
2022/09/29 08:31:42;;;;;;;;;;;;;;;13.33;100.00;-10331.16;5016113;28;19925;-78
2022/09/29 08:34:08;;;;;;;;;;;;;;;12.97;100.00;1199.69;5015555;28;20028;-78
2022/09/29 08:36:33;;;;;;;;;;;;;;;12.67;100.00;10439.47;5015391;28;20342;-78
2022/09/29 08:38:59;;;;;;;;;;;;;;;13.18;100.00;15419.28;4999384;28;19964;-79
2022/09/29 08:41:43;;;;;;;;;;;;;;;13.22;100.00;28693.34;4998694;28;20412;-78
2022/09/29 08:44:25;;;;;;;;;;;;;;;13.29;100.00;42016.34;5015130;28;19960;-77
2022/09/29 08:47:05;;;;;;;;;;;;;;;13.34;100.00;50033.81;5015083;28;20016;-78
2022/09/29 08:49:40;;;;;;;;;;;;;;;13.13;100.00;59716.78;5008623;28;19929;-77
2022/09/29 08:52:12;;;;;;;;;;;;;;;13.20;100.00;68107.56;5015353;28;20015;-77
2022/09/29 08:54:40;;;;;;;;;;;;;;;12.75;100.00;72081.69;4999627;28;19921;-78
2022/09/29 08:57:06;;;;;;;;;;;;;;;12.24;100.00;64641.06;5013731;28;19967;-79
2022/09/29 08:59:33;;;;;;;;;;;;;;;12.11;100.00;49588.03;5015118;28;19921;-79
2022/09/29 09:02:03;;;;;;;;;;;;;;;12.11;100.00;37597.66;5015231;28;20401;-78
2022/09/29 09:04:45;;;;;;;;;;;;;;;12.08;100.00;28627.72;5014750;28;19913;-77
2022/09/29 09:07:23;;;;;;;;;;;;;;;12.00;100.00;20669.84;5015237;28;19917;-77
2022/09/29 09:09:55;;;;;;;;;;;;;;;11.89;100.00;12398.66;5014565;28;19925;-77
2022/09/29 09:12:39;;;;;;;;;;;;;;;11.59;100.00;9089.31;5014084;28;19955;-77
2022/09/29 09:15:13;;;;;;;;;;;;;;;11.69;100.00;4146.47;5015469;28;19925;-77
2022/09/29 09:17:57;;;;;;;;;;;;;;;11.90;100.00;855.78;5014433;28;20060;-77
2022/09/29 09:20:31;;;;;;;;;;;;;;;11.84;100.00;-1120.16;5014832;28;19921;-78
2022/09/29 09:23:01;;;;;;;;;;;;;;;12.00;100.00;-1447.78;5032346;28;20032;-77
2022/09/29 09:25:37;;;;;;;;;;;;;;;12.21;100.00;-1775.00;5014804;28;19921;-79
2022/09/29 09:28:29;;;;;;;;;;;;;;;12.17;100.00;-787.63;5031763;28;19944;-77
2022/09/29 09:31:02;;;;;;;;;;;;;;;12.14;100.00;-1117.22;5014377;28;19917;-77
2022/09/29 09:33:36;;;;;;;;;;;;;;;12.18;100.00;-458.13;5031389;28;19924;-79
2022/09/29 09:36:07;;;;;;;;;;;;;;;12.47;100.00;-1113.88;5026088;28;19967;-80
2022/09/29 09:38:43;;;;;;;;;;;;;;;12.35;100.00;1850.53;5013755;28;19971;-78
2022/09/29 09:41:12;;;;;;;;;;;;;;;12.33;100.00;5477.69;5009943;28;20377;-80
2022/09/29 09:43:42;;;;;;;;;;;;;;;12.51;100.00;7792.25;5015779;28;20209;-80
2022/09/29 09:46:25;;;;;;;;;;;;;;;12.85;100.00;11767.47;5015861;28;19925;-79
2022/09/29 09:49:10;;;;;;;;;;;;;;;13.08;100.00;16409.19;4995085;28;20444;-80
2022/09/29 09:51:54;;;;;;;;;;;;;;;13.24;100.00;21057.03;4995066;28;19917;-78
2022/09/29 09:54:53;;;;;;;;;;;;;;;13.04;100.00;35333.94;5013061;28;19918;-81
2022/09/29 09:57:39;;;;;;;;;;;;;;;13.26;100.00;45684.88;4995495;28;19920;-81
2022/09/29 10:00:05;;;;;;;;;;;;;;;13.53;100.00;51723.88;5009545;28;19995;-82
2022/09/29 10:02:31;;;;;;;;;;;;;;;13.64;100.00;62454.78;5024304;28;19924;-80
2022/09/29 10:04:56;;;;;;;;;;;;;;;13.82;100.00;86370.00;5013465;28;19939;-78
2022/09/29 10:07:27;;;;;;;;;;;;;;;13.73;100.00;115147.94;5025148;28;20425;-77
2022/09/29 10:09:54;;;;;;;;;;;;;;;13.88;100.00;130164.94;5039045;28;19923;-80
2022/09/29 10:12:22;;;;;;;;;;;;;;;13.53;100.00;139306.25;5016079;28;20020;-83
2022/09/29 10:14:55;;;;;;;;;;;;;;;13.31;100.00;134813.03;5033217;28;20401;-83
2022/09/29 10:17:24;;;;;;;;;;;;;;;13.57;100.00;130096.56;5033808;28;20373;-81
2022/09/29 10:20:06;;;;;;;;;;;;;;;13.39;100.00;134833.16;4999537;28;19929;-83
2022/09/29 10:22:34;;;;;;;;;;;;;;;13.39;100.00;132785.44;5006611;28;19940;-81
2022/09/29 10:25:19;;;;;;;;;;;;;;;13.38;100.00;123240.66;5011329;28;19925;-78
2022/09/29 10:27:49;;;;;;;;;;;;;;;13.41;100.00;126651.69;4995790;28;19925;-78
2022/09/29 10:30:27;;;;;;;;;;;;;;;13.44;100.00;123594.09;5004693;28;19921;-78
2022/09/29 10:33:10;;;;;;;;;;;;;;;13.80;100.00;125373.72;5010154;28;19989;-80
2022/09/29 10:35:36;;;;;;;;;;;;;;;13.83;100.00;145784.59;4990925;28;19925;-77
2022/09/29 10:38:25;;;;;;;;;;;;;;;13.91;100.00;146239.91;5000287;28;19929;-78
2022/09/29 10:40:56;;;;;;;;;;;;;;;13.94;100.00;146246.31;5016373;28;20357;-79
2022/09/29 10:43:30;;;;;;;;;;;;;;;13.92;100.00;146242.47;5033052;28;19917;-78
2022/09/29 10:45:58;;;;;;;;;;;;;;;13.75;100.00;146199.09;5032532;28;19924;-80
2022/09/29 10:48:24;;;;;;;;;;;;;;;14.13;100.00;146293.47;4984011;28;19926;-77
2022/09/29 10:51:03;;;;;;;;;;;;;;;14.10;100.00;146285.81;5013581;28;20629;-77
2022/09/29 10:53:42;;;;;;;;;;;;;;;13.98;100.00;146257.78;4994983;28;19921;-77
2022/09/29 10:56:07;;;;;;;;;;;;;;;13.93;100.00;146245.00;5026690;28;19921;-78
2022/09/29 10:58:41;;;;;;;;;;;;;;;14.19;100.00;146310.03;5034555;28;19921;-78
2022/09/29 11:01:11;;;;;;;;;;;;;;;14.38;100.00;146355.97;5007193;28;19928;-81
2022/09/29 11:03:46;;;;;;;;;;;;;;;14.25;100.00;146324.09;4994994;28;19961;-77
2022/09/29 11:06:15;;;;;;;;;;;;;;;14.08;100.00;146280.75;5013262;28;19917;-79
2022/09/29 11:09:00;;;;;;;;;;;;;;;13.62;100.00;146167.22;5005264;28;20300;-79
2022/09/29 11:12:00;;;;;;;;;;;;;;;13.71;100.00;146188.91;5035017;28;19924;-79
2022/09/29 11:15:04;;;;;;;;;;;;;;;13.76;100.00;146201.66;5026003;28;19917;-77
2022/09/29 11:17:36;;;;;;;;;;;;;;;14.03;100.00;146267.94;5034201;28;20392;-76
2022/09/29 11:20:32;;;;;;;;;;;;;;;13.97;100.00;146253.97;5025812;28;19922;-79
2022/09/29 11:23:42;;;;;;;;;;;;;;;13.53;100.00;146145.59;5032881;28;19972;-78
2022/09/29 11:26:27;;;;;;;;;;;;;;;13.54;100.00;146148.09;5002024;28;19914;-78
2022/09/29 11:29:18;;;;;;;;;;;;;;;13.83;100.00;146220.78;4998161;28;19921;-77
2022/09/29 11:32:32;;;;;;;;;;;;;;;13.90;100.00;146236.09;5016188;28;20163;-77
2022/09/29 11:35:16;;;;;;;;;;;;;;;14.24;100.00;146321.53;5016476;28;19924;-78
2022/09/29 11:38:15;;;;;;;;;;;;;;;13.93;100.00;146243.75;5008293;28;19963;-77
2022/09/29 11:40:55;;;;;;;;;;;;;;;13.73;100.00;146194.00;5031406;28;19917;-78
2022/09/29 11:43:41;;;;;;;;;;;;;;;13.57;100.00;146154.50;5035771;28;20393;-78
2022/09/29 11:46:32;;;;;;;;;;;;;;;13.93;100.00;146243.75;5035752;28;19916;-76
2022/09/29 11:49:03;;;;;;;;;;;;;;;14.19;100.00;146310.03;5018448;28;19923;-78
2022/09/29 11:51:59;;;;;;;;;;;;;;;14.19;100.00;146308.78;5035672;28;19921;-78
2022/09/29 11:54:46;;;;;;;;;;;;;;;14.35;100.00;146348.31;5013039;28;19933;-76
2022/09/29 11:57:31;;;;;;;;;;;;;;;14.59;100.00;146408.28;4997710;28;19923;-78
2022/09/29 12:00:07;;;;;;;;;;;;;;;14.84;100.00;146469.56;4995662;28;19922;-77
2022/09/29 12:02:54;;;;;;;;;;;;;;;14.97;100.00;146502.72;5019373;28;20024;-78
2022/09/29 12:05:33;;;;;;;;;;;;;;;15.24;100.00;146570.41;5001114;28;19926;-77
2022/09/29 12:07:59;;;;;;;;;;;;;;;15.66;100.00;146672.50;5003134;28;19921;-78
2022/09/29 12:10:36;;;;;;;;;;;;;;;15.82;100.00;146713.41;5016284;28;19975;-78
2022/09/29 12:13:11;;;;;;;;;;;;;;;15.54;100.00;146644.41;5034231;28;20003;-76
2022/09/29 12:15:43;;;;;;;;;;;;;;;15.87;100.00;146724.91;5018196;28;19924;-82
2022/09/29 12:18:28;;;;;;;;;;;;;;;15.73;100.00;146690.38;5016562;28;19917;-82
2022/09/29 12:20:56;;;;;;;;;;;;;;;15.88;100.00;146728.75;5032079;28;19921;-82
2022/09/29 12:23:26;;;;;;;;;;;;;;;15.54;100.00;146643.16;5013952;28;19924;-83
2022/09/29 12:25:58;;;;;;;;;;;;;;;15.41;100.00;146611.22;5039268;28;19917;-78
2022/09/29 12:28:29;;;;;;;;;;;;;;;15.51;100.00;146636.75;5009086;28;19913;-78
2022/09/29 12:30:59;;;;;;;;;;;;;;;15.23;100.00;146566.56;4998993;28;19968;-84
2022/09/29 12:33:30;;;;;;;;;;;;;;;15.02;100.00;146514.22;4998565;28;19917;-79
2022/09/29 12:36:42;;;;;;;;;;;;;;;15.30;100.00;146584.41;5030609;28;20024;-79
2022/09/29 12:39:15;;;;;;;;;;;;;;;15.79;100.00;146707.03;5014765;28;19917;-79
2022/09/29 12:42:01;;;;;;;;;;;;;;;15.39;100.00;146606.13;5010992;28;20220;-78
2022/09/29 12:44:37;;;;;;;;;;;;;;;15.52;100.00;146638.03;5011959;28;19924;-78
2022/09/29 12:47:17;;;;;;;;;;;;;;;15.81;100.00;146709.59;5015207;28;19918;-78
2022/09/29 12:50:00;;;;;;;;;;;;;;;15.93;100.00;146740.25;5013620;28;19996;-80
2022/09/29 12:52:45;;;;;;;;;;;;;;;15.68;100.00;146678.91;5014469;28;19917;-77
2022/09/29 12:55:16;;;;;;;;;;;;;;;15.63;100.00;146666.16;5013300;28;19917;-77
2022/09/29 12:57:44;;;;;;;;;;;;;;;15.64;100.00;146668.66;5001350;28;20290;-79
2022/09/29 13:00:19;;;;;;;;;;;;;;;15.32;100.00;146589.53;4996290;28;19921;-78
2022/09/29 13:03:05;;;;;;;;;;;;;;;15.48;100.00;146629.09;5013399;28;20027;-78
2022/09/29 13:05:40;;;;;;;;;;;;;;;15.30;100.00;146583.13;4996723;28;19917;-77
2022/09/29 13:08:23;;;;;;;;;;;;;;;15.37;100.00;146601.03;4995524;28;19941;-77
2022/09/29 13:11:06;;;;;;;;;;;;;;;15.27;100.00;146576.75;4998899;28;19933;-78
2022/09/29 13:13:46;;;;;;;;;;;;;;;15.16;100.00;146548.69;5015986;28;19928;-79
2022/09/29 13:16:33;;;;;;;;;;;;;;;14.92;100.00;146489.97;5003862;28;19924;-78
2022/09/29 13:18:58;;;;;;;;;;;;;;;14.80;100.00;146459.34;4997981;28;19921;-78